createdAt,value
2022-08-21T00:02:03.949Z,86.22
2022-08-21T00:04:31.478Z,86.09
2022-08-21T00:07:00.744Z,86.19
2022-08-21T00:09:28.864Z,86.08
2022-08-21T00:11:55.726Z,86.13
2022-08-21T00:14:22.720Z,86.31
2022-08-21T00:16:49.594Z,86.26
2022-08-21T00:19:16.705Z,86.08
2022-08-21T00:21:44.302Z,86.08
2022-08-21T00:24:12.369Z,86.53
2022-08-21T00:26:39.901Z,86.43
2022-08-21T00:29:06.717Z,86.33
2022-08-21T00:31:33.683Z,86.52
2022-08-21T00:34:01.383Z,85.86
2022-08-21T00:36:29.722Z,85.64
2022-08-21T00:38:57.699Z,87.28
2022-08-21T00:41:38.437Z,87.16
2022-08-21T00:44:08.922Z,87.11
2022-08-21T00:46:37.480Z,87.21
2022-08-21T00:49:06.846Z,87.03
2022-08-21T00:51:40.945Z,86.85
2022-08-21T00:54:18.849Z,87.04
2022-08-21T00:56:55.252Z,86.58
2022-08-21T00:59:23.573Z,86.88
2022-08-21T01:01:51.624Z,86.41
2022-08-21T01:04:19.284Z,86.36
2022-08-21T01:06:46.589Z,86.39
2022-08-21T01:09:14.771Z,86.13
2022-08-21T01:11:43.963Z,86.18
2022-08-21T01:14:13.457Z,85.60
2022-08-21T01:16:48.697Z,85.62
2022-08-21T01:19:17.906Z,85.62
2022-08-21T01:21:44.822Z,85.75
2022-08-21T01:24:12.560Z,85.42
2022-08-21T01:26:40.846Z,85.38
2022-08-21T01:29:21.470Z,85.39
2022-08-21T01:31:48.345Z,85.17
2022-08-21T01:34:16.876Z,85.06
2022-08-21T01:36:46.252Z,84.92
2022-08-21T01:39:13.540Z,85.26
2022-08-21T01:41:40.398Z,85.17
2022-08-21T01:44:07.462Z,85.41
2022-08-21T01:46:34.565Z,85.38
2022-08-21T01:49:01.512Z,85.46
2022-08-21T01:51:28.385Z,85.61
2022-08-21T01:53:55.280Z,85.35
2022-08-21T01:56:22.228Z,85.45
2022-08-21T01:58:49.379Z,85.36
2022-08-21T02:01:16.830Z,85.51
2022-08-21T02:03:43.781Z,85.13
2022-08-21T02:06:18.287Z,85.39
2022-08-21T02:08:46.463Z,85.97
2022-08-21T02:11:13.543Z,85.71
2022-08-21T02:13:41.020Z,86.14
2022-08-21T02:16:08.807Z,86.18
2022-08-21T02:18:36.386Z,86.14
2022-08-21T02:21:05.479Z,86.07
2022-08-21T02:23:33.577Z,85.61
2022-08-21T02:26:02.888Z,85.89
2022-08-21T02:28:31.252Z,86.13
2022-08-21T02:30:58.849Z,85.79
2022-08-21T02:33:26.837Z,85.59
2022-08-21T02:35:54.992Z,85.82
2022-08-21T02:38:27.126Z,85.10
2022-08-21T02:40:55.420Z,85.77
2022-08-21T02:43:25.477Z,85.45
2022-08-21T02:45:54.249Z,84.92
2022-08-21T02:48:29.026Z,84.51
2022-08-21T02:51:13.668Z,85.49
2022-08-21T02:53:42.077Z,85.04
2022-08-21T02:56:14.004Z,84.64
2022-08-21T02:58:51.897Z,84.67
2022-08-21T03:01:20.382Z,84.69
2022-08-21T03:03:51.813Z,84.42
2022-08-21T03:06:21.430Z,84.71
2022-08-21T03:08:49.011Z,84.63
2022-08-21T03:11:16.655Z,85.30
2022-08-21T03:13:44.316Z,85.95
2022-08-21T03:16:11.334Z,86.06
2022-08-21T03:18:38.809Z,85.96
2022-08-21T03:21:07.607Z,86.11
2022-08-21T03:23:34.567Z,87.20
2022-08-21T03:26:01.675Z,86.77
2022-08-21T03:28:29.141Z,86.55
2022-08-21T03:30:56.306Z,87.74
2022-08-21T03:33:23.831Z,87.11
2022-08-21T03:36:05.689Z,86.51
2022-08-21T03:38:35.399Z,86.21
2022-08-21T03:41:03.252Z,87.19
2022-08-21T03:43:31.077Z,86.86
2022-08-21T03:46:02.693Z,86.83
2022-08-21T03:48:29.943Z,86.50
2022-08-21T03:50:57.525Z,86.10
2022-08-21T03:53:24.569Z,85.73
2022-08-21T03:55:53.502Z,85.61
2022-08-21T03:58:24.047Z,85.74
2022-08-21T04:00:54.903Z,85.60
2022-08-21T04:03:22.460Z,85.39
2022-08-21T04:05:49.791Z,85.64
2022-08-21T04:08:19.647Z,85.42
2022-08-21T04:10:52.316Z,85.25
2022-08-21T04:13:20.218Z,85.30
2022-08-21T04:15:47.477Z,85.38
2022-08-21T04:18:14.368Z,84.98
2022-08-21T04:20:45.353Z,85.49
2022-08-21T04:23:23.750Z,85.13
2022-08-21T04:25:53.062Z,85.46
2022-08-21T04:28:20.293Z,85.89
2022-08-21T04:30:47.430Z,85.51
2022-08-21T04:33:14.410Z,86.29
2022-08-21T04:35:42.996Z,86.42
2022-08-21T04:38:10.168Z,86.39
2022-08-21T04:40:37.361Z,86.58
2022-08-21T04:43:10.975Z,86.47
2022-08-21T04:45:45.340Z,86.49
2022-08-21T04:48:14.484Z,86.31
2022-08-21T04:51:08.898Z,86.11
2022-08-21T04:53:43.089Z,85.72
2022-08-21T04:56:16.747Z,86.30
2022-08-21T04:58:44.075Z,85.76
2022-08-21T05:01:18.503Z,85.39
2022-08-21T05:03:47.699Z,85.58
2022-08-21T05:06:17.856Z,85.16
2022-08-21T05:08:47.121Z,85.54
2022-08-21T05:11:14.164Z,85.41
2022-08-21T05:13:42.293Z,85.82
2022-08-21T05:16:09.399Z,85.79
2022-08-21T05:18:36.295Z,85.55
2022-08-21T05:21:04.058Z,85.71
2022-08-21T05:23:31.997Z,84.85
2022-08-21T05:25:59.263Z,85.02
2022-08-21T05:28:27.130Z,86.24
2022-08-21T05:30:54.192Z,86.03
2022-08-21T05:33:21.063Z,85.75
2022-08-21T05:35:56.612Z,85.80
2022-08-21T05:38:29.193Z,85.42
2022-08-21T05:40:56.287Z,85.07
2022-08-21T05:43:23.277Z,85.07
2022-08-21T05:45:50.181Z,85.08
2022-08-21T05:48:24.619Z,84.70
2022-08-21T05:50:53.123Z,84.62
2022-08-21T05:53:23.275Z,84.86
2022-08-21T05:55:50.643Z,84.94
2022-08-21T05:58:21.967Z,84.64
2022-08-21T06:00:51.292Z,83.66
2022-08-21T06:03:22.529Z,83.90
2022-08-21T06:05:49.964Z,84.75
2022-08-21T06:08:18.511Z,82.88
2022-08-21T06:10:47.417Z,83.07
2022-08-21T06:13:17.742Z,81.09
2022-08-21T06:15:44.689Z,79.94
2022-08-21T06:18:12.388Z,79.42
2022-08-21T06:20:41.334Z,78.93
2022-08-21T06:23:08.501Z,77.31
2022-08-21T06:25:36.115Z,79.41
2022-08-21T06:28:10.179Z,76.92
2022-08-21T06:30:39.725Z,76.47
2022-08-21T06:33:07.911Z,75.45
2022-08-21T06:35:35.789Z,74.43
2022-08-21T06:38:03.161Z,74.93
2022-08-21T06:40:34.883Z,73.22
2022-08-21T06:43:15.471Z,71.56
2022-08-21T06:45:43.081Z,68.27
2022-08-21T06:48:09.983Z,71.19
2022-08-21T06:50:38.440Z,69.70
2022-08-21T06:53:19.668Z,68.28
2022-08-21T06:55:47.989Z,69.69
2022-08-21T06:58:15.170Z,68.57
2022-08-21T07:00:47.310Z,67.72
2022-08-21T07:03:33.133Z,67.85
2022-08-21T07:06:00.123Z,68.50
2022-08-21T07:08:28.692Z,66.53
2022-08-21T07:10:59.547Z,66.54
2022-08-21T07:13:27.505Z,68.65
2022-08-21T07:15:54.436Z,66.62
2022-08-21T07:18:21.378Z,65.92
2022-08-21T07:20:48.840Z,66.90
2022-08-21T07:23:30.627Z,64.69
2022-08-21T07:25:57.887Z,65.65
2022-08-21T07:28:24.745Z,65.37
2022-08-21T07:30:54.894Z,64.33
2022-08-21T07:33:22.044Z,65.84
2022-08-21T07:35:48.946Z,64.70
2022-08-21T07:38:15.789Z,63.59
2022-08-21T07:40:42.820Z,63.28
2022-08-21T07:43:09.680Z,63.84
2022-08-21T07:45:36.509Z,62.83
2022-08-21T07:48:04.028Z,62.23
2022-08-21T07:50:30.970Z,61.64
2022-08-21T07:52:57.980Z,62.00
2022-08-21T07:55:25.228Z,61.37
2022-08-21T07:57:52.068Z,60.73
2022-08-21T08:00:25.313Z,60.08
2022-08-21T08:02:54.053Z,58.74
2022-08-21T08:05:28.644Z,61.17
2022-08-21T08:07:56.232Z,60.28
2022-08-21T08:10:24.217Z,59.03
2022-08-21T08:12:52.305Z,57.60
2022-08-21T08:15:24.897Z,58.55
2022-08-21T08:17:52.357Z,59.96
2022-08-21T08:20:21.014Z,59.49
2022-08-21T08:22:50.199Z,57.71
2022-08-21T08:25:18.631Z,59.60
2022-08-21T08:27:45.484Z,60.87
2022-08-21T08:30:15.432Z,61.21
2022-08-21T08:32:42.713Z,61.28
2022-08-21T08:35:10.195Z,59.88
2022-08-21T08:37:41.872Z,59.47
2022-08-21T08:40:38.853Z,59.67
2022-08-21T08:43:10.632Z,59.56
2022-08-21T08:45:47.875Z,58.04
2022-08-21T08:48:32.830Z,57.56
2022-08-21T08:51:02.133Z,57.50
2022-08-21T08:53:46.005Z,59.82
2022-08-21T08:56:13.003Z,57.01
2022-08-21T08:58:44.461Z,57.18
2022-08-21T09:01:20.169Z,56.56
2022-08-21T09:03:51.300Z,56.22
2022-08-21T09:06:34.334Z,57.88
2022-08-21T09:09:16.893Z,55.99
2022-08-21T09:11:58.097Z,55.40
2022-08-21T09:14:41.995Z,56.02
2022-08-21T09:17:37.491Z,57.67
2022-08-21T09:20:18.366Z,59.56
2022-08-21T09:23:13.010Z,57.35
2022-08-21T09:25:51.915Z,53.48
2022-08-21T09:28:18.744Z,56.54
2022-08-21T09:30:45.600Z,56.13
2022-08-21T09:33:16.893Z,55.86
2022-08-21T09:36:10.250Z,54.81
2022-08-21T09:38:38.841Z,54.43
2022-08-21T09:41:11.109Z,54.47
2022-08-21T09:43:39.316Z,53.11
2022-08-21T09:46:28.593Z,51.73
2022-08-21T09:49:00.211Z,52.11
2022-08-21T09:51:34.940Z,53.80
2022-08-21T09:54:07.812Z,53.00
2022-08-21T09:57:25.815Z,52.93
2022-08-21T09:59:52.705Z,53.28
2022-08-21T10:02:33.545Z,55.36
2022-08-21T10:05:08.878Z,56.29
2022-08-21T10:07:39.115Z,56.37
2022-08-21T10:10:20.352Z,56.51
2022-08-21T10:13:25.922Z,53.59
2022-08-21T10:16:10.620Z,51.88
2022-08-21T10:19:12.589Z,54.16
2022-08-21T10:22:11.955Z,51.78
2022-08-21T10:24:59.217Z,49.59
2022-08-21T10:27:38.485Z,49.84
2022-08-21T10:30:07.393Z,51.01
2022-08-21T10:33:15.114Z,53.65
2022-08-21T10:35:57.162Z,54.36
2022-08-21T10:38:58.641Z,55.23
2022-08-21T10:42:02.854Z,53.96
2022-08-21T10:44:47.259Z,53.34
2022-08-21T10:47:34.102Z,54.44
2022-08-21T10:50:40.653Z,54.65
2022-08-21T10:53:28.575Z,54.84
2022-08-21T10:56:11.405Z,56.64
2022-08-21T10:58:51.671Z,58.41
2022-08-21T11:01:33.416Z,56.68
2022-08-21T11:04:25.931Z,55.50
2022-08-21T11:07:18.297Z,52.57
2022-08-21T11:09:49.514Z,52.13
2022-08-21T11:12:54.822Z,49.99
2022-08-21T11:15:46.071Z,48.18
2022-08-21T11:18:30.925Z,48.36
2022-08-21T11:21:34.496Z,48.18
2022-08-21T11:24:40.236Z,48.98
2022-08-21T11:27:19.484Z,47.88
2022-08-21T11:29:53.783Z,47.71
2022-08-21T11:32:43.447Z,47.34
2022-08-21T11:35:44.503Z,43.22
2022-08-21T11:38:35.981Z,45.37
2022-08-21T11:41:14.848Z,44.05
2022-08-21T11:43:49.390Z,42.78
2022-08-21T11:46:26.903Z,46.17
2022-08-21T11:49:27.754Z,46.54
2022-08-21T11:52:24.840Z,46.65
2022-08-21T11:55:04.798Z,46.58
2022-08-21T11:57:52.484Z,45.11
2022-08-21T12:00:55.458Z,46.00
2022-08-21T12:03:35.864Z,46.24
2022-08-21T12:06:08.840Z,45.79
2022-08-21T12:08:43.437Z,45.51
2022-08-21T12:11:18.522Z,46.21
2022-08-21T12:14:05.901Z,45.04
2022-08-21T12:16:42.727Z,43.38
2022-08-21T12:19:28.940Z,45.46
2022-08-21T12:21:58.764Z,39.16
2022-08-21T12:24:28.285Z,42.78
2022-08-21T12:27:22.247Z,40.53
2022-08-21T12:29:53.110Z,38.79
2022-08-21T12:32:44.103Z,38.91
2022-08-21T12:35:18.586Z,38.09
2022-08-21T12:38:16.727Z,38.82
2022-08-21T12:40:51.656Z,38.07
2022-08-21T12:43:43.284Z,39.14
2022-08-21T12:46:23.839Z,40.96
2022-08-21T12:49:01.905Z,38.08
2022-08-21T12:51:51.568Z,39.02
2022-08-21T12:54:37.811Z,40.43
2022-08-21T12:57:08.210Z,40.59
2022-08-21T12:59:40.243Z,40.69
2022-08-21T13:02:20.770Z,40.55
2022-08-21T13:04:49.564Z,37.58
2022-08-21T13:07:33.147Z,38.34
2022-08-21T13:10:17.996Z,38.85
2022-08-21T13:12:46.049Z,36.53
2022-08-21T13:15:14.669Z,35.65
2022-08-21T13:17:49.659Z,36.56
2022-08-21T13:20:24.437Z,37.77
2022-08-21T13:22:51.921Z,36.93
2022-08-21T13:25:25.862Z,37.97
2022-08-21T13:28:23.105Z,39.24
2022-08-21T13:30:53.373Z,40.65
2022-08-21T13:33:25.175Z,39.60
2022-08-21T13:36:25.725Z,37.82
2022-08-21T13:38:55.222Z,36.57
2022-08-21T13:41:28.909Z,34.27
2022-08-21T13:44:18.485Z,32.30
2022-08-21T13:46:49.221Z,30.92
2022-08-21T13:49:23.643Z,32.25
2022-08-21T13:51:53.006Z,31.15
2022-08-21T13:54:25.038Z,32.12
2022-08-21T13:56:51.963Z,33.65
2022-08-21T13:59:28.937Z,34.14
2022-08-21T14:02:21.781Z,34.83
2022-08-21T14:05:03.881Z,36.66
2022-08-21T14:07:41.561Z,37.62
2022-08-21T14:10:20.158Z,39.14
2022-08-21T14:12:59.758Z,37.92
2022-08-21T14:15:31.253Z,34.70
2022-08-21T14:18:17.717Z,31.21
2022-08-21T14:20:45.900Z,31.21
2022-08-21T14:23:14.627Z,29.68
2022-08-21T14:25:45.740Z,28.30
2022-08-21T14:28:21.852Z,27.56
2022-08-21T14:30:55.933Z,28.63
2022-08-21T14:33:32.443Z,29.12
2022-08-21T14:35:59.913Z,27.99
2022-08-21T14:38:28.559Z,27.57
2022-08-21T14:41:05.702Z,27.82
2022-08-21T14:43:33.023Z,27.16
2022-08-21T14:46:01.452Z,29.70
2022-08-21T14:48:28.515Z,31.36
2022-08-21T14:51:00.157Z,30.24
2022-08-21T14:53:27.535Z,28.69
2022-08-21T14:56:10.968Z,27.52
2022-08-21T14:58:43.246Z,27.42
2022-08-21T15:01:12.855Z,27.53
2022-08-21T15:03:40.476Z,27.09
2022-08-21T15:06:08.619Z,26.64
2022-08-21T15:08:36.000Z,26.43
2022-08-21T15:11:15.335Z,25.40
2022-08-21T15:13:44.694Z,25.39
2022-08-21T15:16:13.178Z,23.71
2022-08-21T15:18:41.311Z,23.07
2022-08-21T15:21:08.701Z,23.35
2022-08-21T15:23:35.849Z,23.79
2022-08-21T15:26:07.077Z,23.75
2022-08-21T15:28:35.687Z,23.50
2022-08-21T15:31:03.818Z,25.48
2022-08-21T15:33:31.399Z,27.21
2022-08-21T15:35:58.413Z,29.16
2022-08-21T15:38:25.881Z,30.44
2022-08-21T15:40:53.710Z,31.86
2022-08-21T15:43:29.962Z,33.96
2022-08-21T15:46:01.432Z,34.47
2022-08-21T15:48:29.458Z,35.39
2022-08-21T15:50:56.348Z,36.80
2022-08-21T15:53:23.473Z,38.55
2022-08-21T15:55:50.433Z,38.72
2022-08-21T15:58:20.246Z,38.74
2022-08-21T16:00:47.942Z,38.73
2022-08-21T16:03:17.704Z,38.84
2022-08-21T16:05:49.526Z,39.01
2022-08-21T16:08:16.827Z,39.62
2022-08-21T16:10:43.825Z,39.90
2022-08-21T16:13:36.232Z,40.09
2022-08-21T16:16:03.455Z,40.76
2022-08-21T16:18:30.324Z,40.68
2022-08-21T16:20:57.180Z,41.04
2022-08-21T16:23:24.301Z,41.31
2022-08-21T16:25:51.464Z,41.60
2022-08-21T16:28:20.981Z,41.92
2022-08-21T16:30:50.453Z,41.30
2022-08-21T16:33:33.366Z,42.08
2022-08-21T16:36:00.694Z,39.84
2022-08-21T16:38:29.153Z,39.67
2022-08-21T16:40:56.532Z,39.40
2022-08-21T16:43:28.841Z,40.00
2022-08-21T16:45:58.032Z,40.55
2022-08-21T16:48:26.104Z,41.59
2022-08-21T16:50:52.963Z,43.80
2022-08-21T16:53:19.798Z,44.41
2022-08-21T16:55:46.744Z,44.38
2022-08-21T16:58:38.078Z,45.88
2022-08-21T17:01:10.507Z,44.99
2022-08-21T17:03:42.149Z,45.26
2022-08-21T17:06:11.152Z,45.48
2022-08-21T17:08:38.429Z,45.62
2022-08-21T17:11:10.046Z,46.18
2022-08-21T17:13:37.711Z,46.05
2022-08-21T17:16:05.196Z,46.86
2022-08-21T17:18:32.203Z,46.89
2022-08-21T17:20:59.230Z,46.75
2022-08-21T17:23:26.051Z,47.55
2022-08-21T17:25:55.475Z,48.43
2022-08-21T17:28:33.486Z,48.90
2022-08-21T17:31:02.674Z,49.07
2022-08-21T17:33:47.450Z,49.34
2022-08-21T17:36:15.606Z,49.53
2022-08-21T17:38:42.489Z,50.09
2022-08-21T17:41:10.156Z,50.78
2022-08-21T17:43:38.473Z,51.78
2022-08-21T17:46:06.072Z,52.76
2022-08-21T17:48:33.141Z,53.69
2022-08-21T17:51:01.164Z,53.85
2022-08-21T17:53:28.330Z,54.61
2022-08-21T17:55:56.055Z,55.90
2022-08-21T17:58:23.118Z,57.17
2022-08-21T18:00:50.062Z,57.73
2022-08-21T18:03:21.776Z,58.18
2022-08-21T18:05:51.320Z,58.53
2022-08-21T18:08:18.472Z,59.74
2022-08-21T18:10:49.091Z,60.43
2022-08-21T18:13:31.714Z,61.41
2022-08-21T18:16:00.243Z,62.26
2022-08-21T18:18:33.733Z,62.95
2022-08-21T18:21:00.582Z,63.41
2022-08-21T18:23:44.027Z,63.21
2022-08-21T18:26:15.419Z,62.70
2022-08-21T18:28:44.152Z,63.09
2022-08-21T18:31:12.268Z,63.17
2022-08-21T18:33:56.963Z,63.09
2022-08-21T18:36:27.408Z,63.36
2022-08-21T18:38:58.808Z,64.03
2022-08-21T18:41:35.691Z,63.86
2022-08-21T18:44:02.603Z,63.16
2022-08-21T18:46:30.104Z,63.49
2022-08-21T18:48:56.941Z,63.82
2022-08-21T18:51:24.060Z,64.82
2022-08-21T18:53:55.012Z,65.14
2022-08-21T18:56:23.013Z,65.85
2022-08-21T18:58:57.479Z,67.13
2022-08-21T19:01:25.758Z,68.13
2022-08-21T19:03:52.921Z,69.17
2022-08-21T19:06:19.770Z,68.98
2022-08-21T19:08:46.710Z,69.50
2022-08-21T19:11:13.741Z,69.81
2022-08-21T19:13:40.921Z,70.12
2022-08-21T19:16:09.684Z,70.08
2022-08-21T19:18:40.929Z,70.28
2022-08-21T19:21:08.159Z,69.77
2022-08-21T19:23:35.530Z,69.84
2022-08-21T19:26:06.277Z,70.60
2022-08-21T19:28:41.938Z,71.26
2022-08-21T19:31:23.588Z,71.00
2022-08-21T19:34:04.411Z,71.99
2022-08-21T19:36:32.568Z,72.12
2022-08-21T19:39:00.688Z,72.49
2022-08-21T19:41:32.359Z,72.45
2022-08-21T19:44:06.041Z,72.80
2022-08-21T19:46:36.889Z,73.08
2022-08-21T19:49:06.841Z,72.72
2022-08-21T19:51:35.536Z,72.79
2022-08-21T19:54:03.995Z,72.86
2022-08-21T19:56:34.215Z,73.24
2022-08-21T19:59:03.053Z,73.22
2022-08-21T20:01:33.179Z,73.27
2022-08-21T20:04:00.393Z,72.95
2022-08-21T20:06:27.681Z,72.86
2022-08-21T20:08:55.362Z,72.96
2022-08-21T20:14:25.349Z,73.31
2022-08-21T20:16:53.422Z,73.24
2022-08-21T20:19:22.158Z,73.59
2022-08-21T20:21:49.106Z,73.68
2022-08-21T20:24:16.635Z,73.52
2022-08-21T20:26:49.238Z,74.04
2022-08-21T20:29:24.463Z,74.19
2022-08-21T20:31:57.407Z,73.98
2022-08-21T20:34:25.518Z,73.55
2022-08-21T20:36:53.303Z,73.82
2022-08-21T20:39:23.818Z,73.82
2022-08-21T20:41:53.058Z,73.68
2022-08-21T20:44:20.613Z,74.02
2022-08-21T20:46:47.720Z,74.13
2022-08-21T20:49:21.868Z,74.35
2022-08-21T20:51:52.332Z,74.32
2022-08-21T20:54:36.936Z,74.47
2022-08-21T20:57:03.688Z,74.64
2022-08-21T20:59:33.489Z,74.72
2022-08-21T21:02:28.217Z,74.83
2022-08-21T21:05:19.173Z,74.39
2022-08-21T21:08:11.776Z,74.56
2022-08-21T21:10:49.549Z,75.04
2022-08-21T21:13:33.359Z,75.09
2022-08-21T21:16:51.306Z,74.80
2022-08-21T21:19:36.950Z,74.61
2022-08-21T21:22:34.175Z,75.26
2022-08-21T21:25:39.989Z,75.35
2022-08-21T21:28:36.159Z,75.92
2022-08-21T21:31:03.743Z,76.45
2022-08-21T21:33:30.953Z,76.25
2022-08-21T21:36:22.905Z,76.50
2022-08-21T21:39:05.268Z,77.29
2022-08-21T21:42:03.716Z,77.13
2022-08-21T21:44:47.104Z,76.97
2022-08-21T21:47:30.345Z,76.98
2022-08-21T21:50:18.769Z,77.33
2022-08-21T21:53:46.588Z,76.88
2022-08-21T21:56:33.427Z,76.82
2022-08-21T21:59:18.626Z,77.26
2022-08-21T22:02:00.731Z,77.57
2022-08-21T22:05:04.151Z,77.13
2022-08-21T22:07:45.279Z,77.25
2022-08-21T22:10:38.430Z,77.59
2022-08-21T22:13:38.476Z,77.38
2022-08-21T22:16:07.501Z,77.70
2022-08-21T22:18:47.394Z,77.28
2022-08-21T22:21:34.822Z,77.72
2022-08-21T22:24:15.629Z,77.70
2022-08-21T22:26:49.705Z,77.32
2022-08-21T22:29:22.779Z,77.80
2022-08-21T22:32:07.369Z,77.96
2022-08-21T22:34:34.669Z,77.76
2022-08-21T22:37:07.777Z,77.99
2022-08-21T22:39:43.151Z,78.21
2022-08-21T22:42:23.711Z,78.39
2022-08-21T22:44:59.309Z,78.38
2022-08-21T22:47:48.629Z,78.12
2022-08-21T22:50:29.349Z,78.21
2022-08-21T22:53:07.188Z,78.19
2022-08-21T22:55:52.612Z,78.29
2022-08-21T22:58:25.690Z,78.07
2022-08-21T23:01:02.200Z,77.48
2022-08-21T23:03:49.233Z,77.98
2022-08-21T23:06:46.567Z,78.30
2022-08-21T23:09:28.778Z,78.66
2022-08-21T23:12:01.471Z,78.33
2022-08-21T23:14:48.646Z,78.28
2022-08-21T23:17:43.054Z,77.75
2022-08-21T23:20:35.436Z,77.99
2022-08-21T23:23:20.129Z,78.25
2022-08-21T23:29:24.880Z,78.66
2022-08-21T23:32:02.690Z,79.07
2022-08-21T23:34:45.364Z,79.47
2022-08-21T23:37:51.583Z,78.73
2022-08-21T23:40:50.693Z,78.50
2022-08-21T23:44:22.086Z,78.69
2022-08-21T23:47:29.993Z,78.43
2022-08-21T23:50:14.110Z,78.78
2022-08-21T23:52:57.966Z,78.92
2022-08-21T23:55:55.433Z,79.02
2022-08-21T23:58:49.986Z,78.64
